Time;durP1;ratioP1;P1;durP2;ratioP2;P2;SDS_P1;SDS_P2;PMS_P1;PMS_P2;Temp;Humidity;BMP_temperature;BMP_pressure;BME280_temperature;BME280_humidity;BME280_pressure;Samples;Min_cycle;Max_cycle;Signal;HPM_P1;HPM_P2
2021/01/01 00:01:53;;;;;;;;;;;;;;;-0.39;100.00;101156.86;1827438;77;20186;-41
2021/01/01 00:04:21;;;;;;;;;;;;;;;-0.37;100.00;101155.19;1828343;77;20192;-41
2021/01/01 00:06:49;;;;;;;;;;;;;;;-0.34;100.00;101150.16;1827955;77;20192;-39
2021/01/01 00:09:17;;;;;;;;;;;;;;;-0.33;100.00;101151.52;1828549;77;20204;-41
2021/01/01 00:11:49;;;;;;;;;;;;;;;-0.28;100.00;101158.09;1829023;77;20191;-39
2021/01/01 00:14:18;;;;;;;;;;;;;;;-0.28;100.00;101157.69;1829738;77;20221;-41
2021/01/01 00:16:45;;;;;;;;;;;;;;;-0.25;100.00;101158.19;1826934;77;20181;-39
2021/01/01 00:19:13;;;;;;;;;;;;;;;-0.23;100.00;101152.68;1799081;77;20156;-41
2021/01/01 00:21:41;;;;;;;;;;;;;;;-0.20;100.00;101151.52;1830361;77;20464;-40
2021/01/01 00:24:10;;;;;;;;;;;;;;;-0.18;100.00;101142.11;1818215;77;20429;-39
2021/01/01 00:26:38;;;;;;;;;;;;;;;-0.16;100.00;101141.76;1813057;77;20254;-40
2021/01/01 00:29:06;;;;;;;;;;;;;;;-0.14;100.00;101141.41;1821633;78;20414;-39
2021/01/01 00:31:35;;;;;;;;;;;;;;;-0.13;100.00;101145.74;1811637;77;20278;-40
2021/01/01 00:34:03;;;;;;;;;;;;;;;-0.12;100.00;101138.45;1787803;77;20186;-39
2021/01/01 00:36:32;;;;;;;;;;;;;;;-0.09;100.00;101138.56;1833771;77;20164;-39
2021/01/01 00:39:00;;;;;;;;;;;;;;;-0.08;100.00;101132.18;1843153;77;20193;-40
2021/01/01 00:41:29;;;;;;;;;;;;;;;-0.06;100.00;101129.22;1810372;78;20214;-39
2021/01/01 00:43:58;;;;;;;;;;;;;;;-0.03;100.00;101134.90;1805609;78;20223;-41
2021/01/01 00:46:28;;;;;;;;;;;;;;;-0.01;100.00;101129.39;1822240;78;20197;-41
2021/01/01 00:48:59;;;;;;;;;;;;;;;0.01;100.00;101132.88;1814133;78;20196;-39
2021/01/01 00:51:31;;;;;;;;;;;;;;;0.03;100.00;101126.48;1804050;78;20284;-39
2021/01/01 00:54:02;;;;;;;;;;;;;;;0.05;100.00;101123.55;1806857;78;20222;-40
2021/01/01 00:56:30;;;;;;;;;;;;;;;0.06;100.00;101122.33;1805988;78;20341;-40
2021/01/01 00:59:00;;;;;;;;;;;;;;;0.07;100.00;101123.17;1829374;77;20233;-39
2021/01/01 01:01:28;;;;;;;;;;;;;;;0.09;100.00;101115.08;1828097;76;20464;-38
2021/01/01 01:03:57;;;;;;;;;;;;;;;0.10;100.00;101119.00;1826845;76;20239;-38
2021/01/01 01:06:25;;;;;;;;;;;;;;;0.12;100.00;101119.94;1830454;77;20449;-39
2021/01/01 01:08:55;;;;;;;;;;;;;;;0.14;100.00;101119.55;1832399;77;20311;-39
2021/01/01 01:11:27;;;;;;;;;;;;;;;0.14;100.00;101114.39;1810890;77;20283;-39
2021/01/01 01:13:55;;;;;;;;;;;;;;;0.16;100.00;101111.87;1831270;77;20277;-39
2021/01/01 01:16:31;;;;;;;;;;;;;;;0.16;100.00;101121.78;1832851;77;20184;-40
2021/01/01 01:18:59;;;;;;;;;;;;;;;0.18;100.00;101115.39;1835927;77;20298;-46
2021/01/01 01:21:27;;;;;;;;;;;;;;;0.16;100.00;101106.31;1831489;77;20148;-39
2021/01/01 01:23:55;;;;;;;;;;;;;;;0.18;100.00;101111.52;1837156;77;20446;-38
2021/01/01 01:26:23;;;;;;;;;;;;;;;0.17;100.00;101110.64;1841882;77;20175;-40
2021/01/01 01:28:51;;;;;;;;;;;;;;;0.16;100.00;101108.89;1830830;77;20171;-40
2021/01/01 01:31:20;;;;;;;;;;;;;;;0.17;100.00;101112.34;1831574;77;20176;-38
2021/01/01 01:33:48;;;;;;;;;;;;;;;0.16;100.00;101111.47;1830545;77;20239;-39
2021/01/01 01:36:16;;;;;;;;;;;;;;;0.16;100.00;101111.87;1832280;77;20180;-40
2021/01/01 01:38:44;;;;;;;;;;;;;;;0.16;100.00;101112.75;1835765;77;20145;-49
2021/01/01 01:41:12;;;;;;;;;;;;;;;0.16;100.00;101114.45;1834168;77;20225;-39
2021/01/01 01:43:40;;;;;;;;;;;;;;;0.15;100.00;101109.70;1833314;77;20315;-38
2021/01/01 01:46:08;;;;;;;;;;;;;;;0.15;100.00;101108.42;1835131;77;20282;-39
2021/01/01 01:48:37;;;;;;;;;;;;;;;0.15;100.00;101102.39;1798738;78;20209;-41
2021/01/01 01:51:07;;;;;;;;;;;;;;;0.15;100.00;101100.69;1793539;78;20207;-40
2021/01/01 01:53:42;;;;;;;;;;;;;;;0.15;100.00;101098.52;1845590;77;20290;-40
2021/01/01 01:56:10;;;;;;;;;;;;;;;0.16;100.00;101096.41;1811582;78;20263;-40
2021/01/01 01:58:40;;;;;;;;;;;;;;;0.16;100.00;101102.86;1815780;78;20238;-39
2021/01/01 02:01:08;;;;;;;;;;;;;;;0.16;100.00;101095.12;1814044;78;20174;-39
2021/01/01 02:03:36;;;;;;;;;;;;;;;0.17;100.00;101094.30;1836007;77;20283;-39
2021/01/01 02:06:05;;;;;;;;;;;;;;;0.16;100.00;101093.83;1835101;77;20198;-40
2021/01/01 02:08:33;;;;;;;;;;;;;;;0.16;100.00;101083.11;1794755;79;20212;-39
2021/01/01 02:11:02;;;;;;;;;;;;;;;0.17;100.00;101087.44;1821183;77;20180;-38
2021/01/01 02:13:30;;;;;;;;;;;;;;;0.17;100.00;101087.44;1822340;77;20228;-39
2021/01/01 02:15:57;;;;;;;;;;;;;;;0.18;100.00;101084.04;1823435;77;20142;-39
2021/01/01 02:18:40;;;;;;;;;;;;;;;0.19;100.00;101079.77;1819216;77;20182;-40
2021/01/01 02:21:09;;;;;;;;;;;;;;;0.19;100.00;101080.64;1827031;77;20131;-39
2021/01/01 02:26:51;;;;;;;;;;;;;;;0.24;100.00;101076.91;1913315;74;20231;-38
2021/01/01 02:29:19;;;;;;;;;;;;;;;0.20;100.00;101075.04;1856549;75;20247;-41
2021/01/01 02:31:47;;;;;;;;;;;;;;;0.19;100.00;101072.91;1872311;75;20388;-39
2021/01/01 02:34:14;;;;;;;;;;;;;;;0.21;100.00;101071.64;1867997;75;20130;-39
2021/01/01 02:36:42;;;;;;;;;;;;;;;0.22;100.00;101070.41;1867532;77;20148;-38
2021/01/01 02:39:11;;;;;;;;;;;;;;;0.22;100.00;101059.21;1867829;77;20172;-40
2021/01/01 02:41:39;;;;;;;;;;;;;;;0.22;100.00;101060.50;1876732;75;20234;-39
2021/01/01 02:44:06;;;;;;;;;;;;;;;0.22;100.00;101060.50;1886665;75;20199;-39
2021/01/01 02:46:34;;;;;;;;;;;;;;;0.22;100.00;101058.80;1867580;75;20170;-40
2021/01/01 02:49:02;;;;;;;;;;;;;;;0.22;100.00;101062.67;1870976;75;20187;-40
2021/01/01 02:51:30;;;;;;;;;;;;;;;0.22;100.00;101054.05;1869078;75;20193;-40
2021/01/01 02:53:57;;;;;;;;;;;;;;;0.21;100.00;101049.31;1875697;75;20281;-39
2021/01/01 02:56:25;;;;;;;;;;;;;;;0.22;100.00;101052.77;1868809;75;20209;-39
2021/01/01 02:58:53;;;;;;;;;;;;;;;0.21;100.00;101048.44;1893983;75;20124;-40
2021/01/01 03:01:21;;;;;;;;;;;;;;;0.22;100.00;101059.21;1869591;75;20193;-40
2021/01/01 03:03:48;;;;;;;;;;;;;;;0.21;100.00;101043.28;1872922;75;20209;-39
2021/01/01 03:06:16;;;;;;;;;;;;;;;0.22;100.00;101048.48;1879224;75;20184;-39
2021/01/01 03:08:45;;;;;;;;;;;;;;;0.22;100.00;101050.19;1867849;75;20165;-39
2021/01/01 03:11:13;;;;;;;;;;;;;;;0.21;100.00;101046.73;1867903;77;20141;-39
2021/01/01 03:13:40;;;;;;;;;;;;;;;0.21;100.00;101049.31;1867975;77;20182;-39
2021/01/01 03:16:08;;;;;;;;;;;;;;;0.21;100.00;101049.31;1868011;77;20150;-39
2021/01/01 03:18:36;;;;;;;;;;;;;;;0.23;100.00;101055.81;1867799;77;20162;-39
2021/01/01 03:21:04;;;;;;;;;;;;;;;0.24;100.00;101054.58;1868109;77;20399;-37
2021/01/01 03:23:32;;;;;;;;;;;;;;;0.25;100.00;101041.28;1868735;75;20217;-39
2021/01/01 03:26:00;;;;;;;;;;;;;;;0.25;100.00;101050.30;1901085;75;20156;-39
2021/01/01 03:28:27;;;;;;;;;;;;;;;0.27;100.00;101055.06;1902836;75;20223;-39
2021/01/01 03:30:55;;;;;;;;;;;;;;;0.27;100.00;101052.48;1902876;75;20191;-39
2021/01/01 03:33:23;;;;;;;;;;;;;;;0.29;100.00;101049.55;1902842;75;20187;-38
2021/01/01 03:35:52;;;;;;;;;;;;;;;0.29;100.00;101050.43;1897635;75;20317;-38
2021/01/01 03:38:19;;;;;;;;;;;;;;;0.29;100.00;101050.84;1867232;77;20158;-38
2021/01/01 03:40:47;;;;;;;;;;;;;;;0.29;100.00;101047.84;1867341;77;20162;-40
2021/01/01 03:43:15;;;;;;;;;;;;;;;0.30;100.00;101050.89;1866796;77;20174;-39
2021/01/01 03:45:43;;;;;;;;;;;;;;;0.31;100.00;101051.77;1869760;75;20227;-39
2021/01/01 03:48:10;;;;;;;;;;;;;;;0.31;100.00;101056.52;1867276;75;20170;-39
2021/01/01 03:50:38;;;;;;;;;;;;;;;0.30;100.00;101059.92;1868601;77;20135;-39
2021/01/01 03:53:06;;;;;;;;;;;;;;;0.29;100.00;101053.01;1871244;77;20182;-40
2021/01/01 03:55:33;;;;;;;;;;;;;;;0.29;100.00;101051.72;1870976;77;20150;-39
2021/01/01 03:58:01;;;;;;;;;;;;;;;0.28;100.00;101054.24;1869957;75;20297;-39
2021/01/01 04:00:30;;;;;;;;;;;;;;;0.28;100.00;101058.11;1879289;75;21022;-39
2021/01/01 04:02:57;;;;;;;;;;;;;;;0.29;100.00;101058.58;1872102;75;20189;-38
2021/01/01 04:05:25;;;;;;;;;;;;;;;0.28;100.00;101062.85;1867960;75;20424;-39
2021/01/01 04:07:53;;;;;;;;;;;;;;;0.27;100.00;101058.52;1885182;75;20135;-39
2021/01/01 04:10:21;;;;;;;;;;;;;;;0.29;100.00;101059.87;1867252;77;20187;-39
2021/01/01 04:12:49;;;;;;;;;;;;;;;0.28;100.00;101060.28;1867254;77;20190;-39
2021/01/01 04:15:16;;;;;;;;;;;;;;;0.28;100.00;101060.28;1865848;75;20182;-39
2021/01/01 04:17:44;;;;;;;;;;;;;;;0.29;100.00;101065.90;1867200;77;20146;-41
2021/01/01 04:20:14;;;;;;;;;;;;;;;0.29;100.00;101065.90;1872370;75;20128;-39
2021/01/01 04:22:41;;;;;;;;;;;;;;;0.30;100.00;101061.20;1869291;75;20156;-39
2021/01/01 04:25:11;;;;;;;;;;;;;;;0.31;100.00;101076.27;1867135;77;20129;-39
2021/01/01 04:27:39;;;;;;;;;;;;;;;0.31;100.00;101066.83;1866907;77;20125;-39
2021/01/01 04:30:08;;;;;;;;;;;;;;;0.31;100.00;101068.53;1867074;77;20236;-39
2021/01/01 04:32:36;;;;;;;;;;;;;;;0.30;100.00;101066.78;1866925;77;20205;-38
2021/01/01 04:35:05;;;;;;;;;;;;;;;0.30;100.00;101061.20;1867074;77;20229;-39
2021/01/01 04:37:33;;;;;;;;;;;;;;;0.30;100.00;101069.36;1876997;75;20219;-39
2021/01/01 04:40:01;;;;;;;;;;;;;;;0.30;100.00;101068.95;1867258;77;20219;-40
2021/01/01 04:42:28;;;;;;;;;;;;;;;0.29;100.00;101065.90;1876914;75;20383;-40
2021/01/01 04:44:56;;;;;;;;;;;;;;;0.28;100.00;101069.71;1804614;77;20225;-40
2021/01/01 04:47:24;;;;;;;;;;;;;;;0.29;100.00;101073.63;1867257;77;20154;-40
2021/01/01 04:49:51;;;;;;;;;;;;;;;0.30;100.00;101070.23;1867186;77;20206;-39
2021/01/01 04:52:19;;;;;;;;;;;;;;;0.29;100.00;101067.19;1889874;75;20132;-38
2021/01/01 04:54:48;;;;;;;;;;;;;;;0.30;100.00;101067.66;1880065;75;20190;-38
2021/01/01 04:57:15;;;;;;;;;;;;;;;0.30;100.00;101062.50;1867419;77;20182;-40
2021/01/01 04:59:43;;;;;;;;;;;;;;;0.30;100.00;101067.66;1867438;75;20227;-39
2021/01/01 05:02:11;;;;;;;;;;;;;;;0.30;100.00;101065.48;1867420;77;20192;-38
2021/01/01 05:04:38;;;;;;;;;;;;;;;0.29;100.00;101067.19;1867686;75;20227;-39
2021/01/01 05:07:06;;;;;;;;;;;;;;;0.30;100.00;101067.66;1886719;75;20178;-40
2021/01/01 05:09:34;;;;;;;;;;;;;;;0.30;100.00;101061.20;1867063;75;20166;-40
2021/01/01 05:12:07;;;;;;;;;;;;;;;0.30;100.00;101061.63;1897247;75;20176;-40
2021/01/01 05:14:34;;;;;;;;;;;;;;;0.31;100.00;101062.96;1902493;75;20493;-39
2021/01/01 05:17:02;;;;;;;;;;;;;;;0.32;100.00;101066.42;1902329;75;20179;-39
2021/01/01 05:19:41;;;;;;;;;;;;;;;0.32;100.00;101064.72;1902290;75;20175;-40
2021/01/01 05:22:11;;;;;;;;;;;;;;;0.34;100.00;101071.19;1891988;75;20200;-40
2021/01/01 05:24:41;;;;;;;;;;;;;;;0.35;100.00;101065.20;1874764;75;20382;-39
2021/01/01 05:27:16;;;;;;;;;;;;;;;0.36;100.00;101066.96;1866887;77;20224;-39
2021/01/01 05:29:52;;;;;;;;;;;;;;;0.36;100.00;101066.96;1867171;77;20225;-39
2021/01/01 05:32:22;;;;;;;;;;;;;;;0.37;100.00;101055.41;1867076;77;20195;-39
2021/01/01 05:34:50;;;;;;;;;;;;;;;0.37;100.00;101064.84;1867532;77;20459;-39
2021/01/01 05:37:34;;;;;;;;;;;;;;;0.37;100.00;101067.02;1867047;77;20134;-38
2021/01/01 05:40:08;;;;;;;;;;;;;;;0.37;100.00;101068.30;1867322;77;20134;-39
2021/01/01 05:42:36;;;;;;;;;;;;;;;0.38;100.00;101067.48;1866453;77;20201;-39
2021/01/01 05:45:17;;;;;;;;;;;;;;;0.39;100.00;101069.20;1867118;77;20141;-40
2021/01/01 05:48:04;;;;;;;;;;;;;;;0.39;100.00;101065.33;1867312;77;20243;-42
2021/01/01 05:50:32;;;;;;;;;;;;;;;0.40;100.00;101063.22;1867363;75;20430;-43
2021/01/01 05:53:14;;;;;;;;;;;;;;;0.41;100.00;101056.36;1867010;77;20186;-40
2021/01/01 05:55:42;;;;;;;;;;;;;;;0.43;100.00;101056.41;1867339;77;20123;-40
2021/01/01 05:58:20;;;;;;;;;;;;;;;0.42;100.00;101050.79;1867458;77;20142;-39
2021/01/01 06:00:50;;;;;;;;;;;;;;;0.42;100.00;101047.80;1867103;77;20178;-39
2021/01/01 06:03:22;;;;;;;;;;;;;;;0.44;100.00;101031.09;1877285;75;20424;-42
2021/01/01 06:05:57;;;;;;;;;;;;;;;0.44;100.00;101034.95;1886781;75;20476;-40
2021/01/01 06:08:28;;;;;;;;;;;;;;;0.45;100.00;101040.17;1870979;75;20154;-40
2021/01/01 06:11:02;;;;;;;;;;;;;;;0.46;100.00;101039.76;1867534;77;20178;-39
2021/01/01 06:13:35;;;;;;;;;;;;;;;0.47;100.00;101032.03;1867149;76;20135;-45
2021/01/01 06:16:09;;;;;;;;;;;;;;;0.49;100.00;101039.83;1867452;77;20130;-39
2021/01/01 06:18:35;;;;;;;;;;;;;;;0.51;100.00;101037.77;1867369;75;20212;-40
2021/01/01 06:21:07;;;;;;;;;;;;;;;0.53;100.00;101050.27;1867892;75;20189;-40
2021/01/01 06:26:50;;;;;;;;;;;;;;;0.60;100.00;101040.59;1907751;74;20197;-39
2021/01/01 06:29:18;;;;;;;;;;;;;;;0.57;100.00;101043.52;1847032;75;20208;-40
2021/01/01 06:31:46;;;;;;;;;;;;;;;0.56;100.00;101041.34;1868085;75;20304;-40
2021/01/01 06:34:25;;;;;;;;;;;;;;;0.57;100.00;101039.23;1868157;75;20158;-41
2021/01/01 06:36:53;;;;;;;;;;;;;;;0.59;100.00;101035.41;1866388;77;20471;-39
2021/01/01 06:39:38;;;;;;;;;;;;;;;0.60;100.00;101034.55;1868131;77;20249;-40
2021/01/01 06:42:06;;;;;;;;;;;;;;;0.62;100.00;101020.00;1882985;76;20181;-40
2021/01/01 06:44:37;;;;;;;;;;;;;;;0.63;100.00;101032.08;1887691;75;20131;-40
2021/01/01 06:47:07;;;;;;;;;;;;;;;0.63;100.00;101026.92;1867687;77;20391;-42
2021/01/01 06:49:39;;;;;;;;;;;;;;;0.67;100.00;101041.64;1829820;77;20138;-39
2021/01/01 06:52:13;;;;;;;;;;;;;;;0.69;100.00;101039.99;1867953;77;20140;-46
2021/01/01 06:54:58;;;;;;;;;;;;;;;0.70;100.00;101035.30;1867882;75;20427;-40
2021/01/01 06:57:28;;;;;;;;;;;;;;;0.72;100.00;101040.09;1869974;75;20142;-40
2021/01/01 06:59:57;;;;;;;;;;;;;;;0.73;100.00;101034.95;1871412;75;20177;-40
2021/01/01 07:02:27;;;;;;;;;;;;;;;0.76;100.00;101044.50;1868063;77;20492;-39
2021/01/01 07:04:56;;;;;;;;;;;;;;;0.76;100.00;101038.92;1880332;75;20469;-40
2021/01/01 07:07:40;;;;;;;;;;;;;;;0.79;100.00;101047.14;1868586;75;20186;-40
2021/01/01 07:10:10;;;;;;;;;;;;;;;0.81;100.00;101048.08;1868070;77;20198;-40
2021/01/01 07:12:38;;;;;;;;;;;;;;;0.83;100.00;101039.97;1873610;75;20447;-40
2021/01/01 07:15:32;;;;;;;;;;;;;;;0.85;100.00;101037.02;1868178;76;20208;-39
2021/01/01 07:18:00;;;;;;;;;;;;;;;0.87;100.00;101046.08;1868604;75;20276;-40
2021/01/01 07:20:28;;;;;;;;;;;;;;;0.89;100.00;101048.30;1870560;75;20171;-40
2021/01/01 07:22:57;;;;;;;;;;;;;;;0.91;100.00;101046.64;1873525;75;20269;-40
2021/01/01 07:25:38;;;;;;;;;;;;;;;0.94;100.00;101041.13;1867867;77;20189;-40
2021/01/01 07:28:06;;;;;;;;;;;;;;;0.95;100.00;101041.59;1868091;77;20150;-40
2021/01/01 07:30:35;;;;;;;;;;;;;;;0.97;100.00;101045.10;1868148;77;20269;-39
2021/01/01 07:33:03;;;;;;;;;;;;;;;1.00;100.00;101049.45;1868288;77;20135;-38
2021/01/01 07:35:31;;;;;;;;;;;;;;;1.01;100.00;101049.91;1893265;75;20491;-38
2021/01/01 07:37:59;;;;;;;;;;;;;;;1.03;100.00;101045.27;1870286;75;20174;-40
2021/01/01 07:40:27;;;;;;;;;;;;;;;1.04;100.00;101047.44;1855119;75;20136;-40
2021/01/01 07:42:55;;;;;;;;;;;;;;;1.07;100.00;101048.38;1868901;75;20184;-43
2021/01/01 07:45:24;;;;;;;;;;;;;;;1.09;100.00;101049.30;1880373;75;20497;-39
2021/01/01 07:47:52;;;;;;;;;;;;;;;1.11;100.00;101045.48;1868277;75;20123;-39
2021/01/01 07:50:20;;;;;;;;;;;;;;;1.13;100.00;101042.08;1867225;75;20150;-41
2021/01/01 07:52:48;;;;;;;;;;;;;;;1.16;100.00;101039.59;1867297;77;20463;-41
2021/01/01 07:55:21;;;;;;;;;;;;;;;1.20;100.00;101040.54;1834712;75;20286;-39
2021/01/01 07:57:49;;;;;;;;;;;;;;;1.22;100.00;101037.59;1868807;75;20466;-39
2021/01/01 08:00:18;;;;;;;;;;;;;;;1.25;100.00;101036.81;1843213;76;20226;-42
2021/01/01 08:02:46;;;;;;;;;;;;;;;1.28;100.00;101036.45;1871059;75;20342;-41
2021/01/01 08:05:15;;;;;;;;;;;;;;;1.32;100.00;101026.65;1870994;75;20217;-40
2021/01/01 08:07:42;;;;;;;;;;;;;;;1.36;100.00;101025.04;1866880;77;20439;-39
2021/01/01 08:10:10;;;;;;;;;;;;;;;1.37;100.00;101035.42;1868645;75;20186;-41
2021/01/01 08:12:38;;;;;;;;;;;;;;;1.39;100.00;101030.27;1871661;75;20144;-40
2021/01/01 08:15:10;;;;;;;;;;;;;;;1.42;100.00;101039.40;1867124;77;20163;-42
2021/01/01 08:17:36;;;;;;;;;;;;;;;1.42;100.00;101033.81;1886469;75;20231;-41
2021/01/01 08:20:08;;;;;;;;;;;;;;;1.45;100.00;101038.17;1875839;75;20176;-41
2021/01/01 08:22:36;;;;;;;;;;;;;;;1.45;100.00;101038.17;1864872;77;20229;-41
2021/01/01 08:25:05;;;;;;;;;;;;;;;1.48;100.00;101032.68;1869696;75;20225;-40
2021/01/01 08:27:34;;;;;;;;;;;;;;;1.52;100.00;101031.03;1867062;75;20197;-40
2021/01/01 08:30:07;;;;;;;;;;;;;;;1.55;100.00;101037.58;1866942;75;20189;-40
2021/01/01 08:32:35;;;;;;;;;;;;;;;1.59;100.00;101040.69;1866910;77;20189;-41
2021/01/01 08:35:08;;;;;;;;;;;;;;;1.62;100.00;101039.91;1824466;77;20189;-41
2021/01/01 08:37:37;;;;;;;;;;;;;;;1.65;100.00;101038.67;1835166;77;20159;-42
2021/01/01 08:40:07;;;;;;;;;;;;;;;1.68;100.00;101037.47;1866429;77;20245;-41
2021/01/01 08:42:36;;;;;;;;;;;;;;;1.70;100.00;101034.09;1866729;77;20436;-41
2021/01/01 08:45:05;;;;;;;;;;;;;;;1.72;100.00;101027.23;1866656;77;20182;-40
2021/01/01 08:47:44;;;;;;;;;;;;;;;1.73;100.00;101026.81;1877838;75;20159;-41
2021/01/01 08:50:28;;;;;;;;;;;;;;;1.72;100.00;101024.64;1870903;75;20135;-41
2021/01/01 08:52:58;;;;;;;;;;;;;;;1.70;100.00;101028.93;1871536;75;20129;-42
2021/01/01 08:55:26;;;;;;;;;;;;;;;1.70;100.00;101012.55;1866596;77;20128;-41
2021/01/01 08:58:12;;;;;;;;;;;;;;;1.71;100.00;101015.14;1866623;76;20177;-40
2021/01/01 09:00:43;;;;;;;;;;;;;;;1.75;100.00;101003.19;1868841;75;20228;-40
2021/01/01 09:03:16;;;;;;;;;;;;;;;1.79;100.00;100994.23;1883694;75;20116;-40
2021/01/01 09:05:46;;;;;;;;;;;;;;;1.83;100.00;101001.66;1900423;75;20406;-40
2021/01/01 09:08:16;;;;;;;;;;;;;;;1.83;100.00;100999.95;1866850;77;20134;-40
2021/01/01 09:10:47;;;;;;;;;;;;;;;1.83;100.00;100993.91;1873134;75;20219;-39
2021/01/01 09:13:30;;;;;;;;;;;;;;;1.80;100.00;100994.69;1899831;75;20203;-40
2021/01/01 09:16:11;;;;;;;;;;;;;;;1.79;100.00;100994.23;1867070;75;20490;-39
2021/01/01 09:18:35;;;;;;;;;;;;;;;1.81;100.00;100994.28;1875829;75;20142;-44
2021/01/01 09:21:11;;;;;;;;;;;;;;;1.84;100.00;101001.67;1876229;75;20299;-41
2021/01/01 09:23:39;;;;;;;;;;;;;;;1.88;100.00;101009.09;1867455;75;20220;-40
2021/01/01 09:26:07;;;;;;;;;;;;;;;1.91;100.00;101001.39;1868487;75;20195;-40
2021/01/01 09:28:35;;;;;;;;;;;;;;;1.95;100.00;100996.77;1874561;75;20258;-40
2021/01/01 09:31:04;;;;;;;;;;;;;;;1.96;100.00;100991.64;1869528;75;20216;-43
2021/01/01 09:33:33;;;;;;;;;;;;;;;1.97;100.00;101004.11;1872993;75;20282;-39
2021/01/01 09:36:02;;;;;;;;;;;;;;;1.97;100.00;101004.99;1866757;75;20174;-40
2021/01/01 09:38:30;;;;;;;;;;;;;;;1.98;100.00;101000.28;1867104;77;20453;-39
2021/01/01 09:40:58;;;;;;;;;;;;;;;1.99;100.00;100998.16;1867833;75;20259;-41
2021/01/01 09:43:26;;;;;;;;;;;;;;;1.99;100.00;100985.64;1883277;75;20196;-40
2021/01/01 09:45:54;;;;;;;;;;;;;;;1.98;100.00;100977.02;1871571;75;20271;-39
2021/01/01 09:48:23;;;;;;;;;;;;;;;1.96;100.00;100974.83;1869207;75;20510;-41
2021/01/01 09:50:50;;;;;;;;;;;;;;;1.95;100.00;100976.95;1866955;75;20133;-40
2021/01/01 09:53:18;;;;;;;;;;;;;;;1.95;100.00;100975.67;1869967;75;20183;-41
2021/01/01 09:55:50;;;;;;;;;;;;;;;1.94;100.00;100973.04;1866508;75;20260;-40
2021/01/01 09:58:18;;;;;;;;;;;;;;;1.93;100.00;100970.00;1868595;75;20120;-40
2021/01/01 10:00:48;;;;;;;;;;;;;;;1.93;100.00;100962.23;1900828;75;20151;-40
2021/01/01 10:03:15;;;;;;;;;;;;;;;1.95;100.00;100965.74;1866420;77;20263;-39
2021/01/01 10:05:45;;;;;;;;;;;;;;;1.97;100.00;100964.04;1867004;75;20122;-41
2021/01/01 10:08:14;;;;;;;;;;;;;;;1.96;100.00;100954.56;1850862;76;20121;-41
2021/01/01 10:10:47;;;;;;;;;;;;;;;1.96;100.00;100949.39;1895261;75;20198;-40
2021/01/01 10:13:14;;;;;;;;;;;;;;;1.96;100.00;100952.86;1870632;75;20162;-39
2021/01/01 10:15:43;;;;;;;;;;;;;;;1.97;100.00;100949.41;1871529;75;20260;-40
2021/01/01 10:18:11;;;;;;;;;;;;;;;1.98;100.00;100950.28;1866504;75;20192;-41
2021/01/01 10:20:38;;;;;;;;;;;;;;;1.99;100.00;100944.27;1879139;75;20184;-41
2021/01/01 10:26:53;;;;;;;;;;;;;;;2.10;100.00;100934.19;1901053;74;20297;-40
2021/01/01 10:29:22;;;;;;;;;;;;;;;2.09;100.00;100928.13;1858292;75;20444;-40
2021/01/01 10:31:49;;;;;;;;;;;;;;;2.09;100.00;100924.25;1862527;75;20288;-41
2021/01/01 10:34:18;;;;;;;;;;;;;;;2.09;100.00;100927.26;1885826;75;20278;-40
2021/01/01 10:36:50;;;;;;;;;;;;;;;2.09;100.00;100920.38;1875324;75;20297;-40
2021/01/01 10:39:17;;;;;;;;;;;;;;;2.10;100.00;100918.66;1869531;75;20228;-39
2021/01/01 10:41:48;;;;;;;;;;;;;;;2.11;100.00;100916.50;1867050;75;20194;-40
2021/01/01 10:44:16;;;;;;;;;;;;;;;2.12;100.00;100919.55;1873084;75;20198;-40
2021/01/01 10:46:52;;;;;;;;;;;;;;;2.11;100.00;100911.33;1875855;75;20209;-40
2021/01/01 10:49:24;;;;;;;;;;;;;;;2.13;100.00;100927.34;1883837;75;20197;-39
2021/01/01 10:51:51;;;;;;;;;;;;;;;2.14;100.00;100917.45;1874387;75;20141;-41
2021/01/01 10:54:19;;;;;;;;;;;;;;;2.14;100.00;100912.28;1868660;75;20190;-39
2021/01/01 10:56:47;;;;;;;;;;;;;;;2.16;100.00;100913.62;1872811;75;20128;-40
2021/01/01 10:59:23;;;;;;;;;;;;;;;2.17;100.00;100925.68;1832654;75;20275;-41
2021/01/01 11:01:59;;;;;;;;;;;;;;;2.19;100.00;100911.08;1816259;77;20371;-41
2021/01/01 11:04:27;;;;;;;;;;;;;;;2.21;100.00;100910.70;1830259;77;20926;-40
2021/01/01 11:06:55;;;;;;;;;;;;;;;2.22;100.00;100908.16;1830422;77;20263;-40
2021/01/01 11:09:24;;;;;;;;;;;;;;;2.24;100.00;100913.33;1839536;77;20154;-39
2021/01/01 11:11:56;;;;;;;;;;;;;;;2.24;100.00;100923.67;1839523;77;20226;-40
2021/01/01 11:15:02;;;;;;;;;;;;;;;2.25;100.00;100934.06;1824391;77;20193;-40
2021/01/01 12:21:51;;;;;;;;;;;;;;;2.28;100.00;100930.67;1795031;79;20748;-39
2021/01/01 12:24:22;;;;;;;;;;;;;;;2.25;100.00;100931.47;1812118;77;20188;-39
2021/01/01 12:26:39;;;;;;;;;;;;;;;2.24;100.00;100932.73;1808375;77;20460;-40
2021/01/01 12:29:05;;;;;;;;;;;;;;;2.22;100.00;100927.97;1833340;77;20185;-41
2021/01/01 12:31:33;;;;;;;;;;;;;;;2.21;100.00;100930.97;1794660;79;20311;-40
2021/01/01 12:34:01;;;;;;;;;;;;;;;2.22;100.00;100928.84;1808488;78;20298;-41
2021/01/01 12:36:31;;;;;;;;;;;;;;;2.24;100.00;100923.26;1785374;78;20216;-39
2021/01/01 12:39:01;;;;;;;;;;;;;;;2.24;100.00;100922.38;1786860;78;20286;-41
2021/01/01 12:41:30;;;;;;;;;;;;;;;2.22;100.00;100913.33;1807769;78;20230;-42
2021/01/01 12:43:57;;;;;;;;;;;;;;;2.20;100.00;100906.36;1804005;78;20237;-40
2021/01/01 12:46:25;;;;;;;;;;;;;;;2.18;100.00;100911.49;1808037;78;20186;-42
2021/01/01 12:48:53;;;;;;;;;;;;;;;2.17;100.00;100912.75;1810804;78;20182;-42
2021/01/01 12:51:21;;;;;;;;;;;;;;;2.17;100.00;100923.09;1806840;78;20294;-41
2021/01/01 12:53:49;;;;;;;;;;;;;;;2.17;100.00;100926.97;1806797;78;20177;-41
2021/01/01 12:56:17;;;;;;;;;;;;;;;2.16;100.00;100926.13;1805129;78;20484;-39
2021/01/01 12:58:45;;;;;;;;;;;;;;;2.15;100.00;100932.56;1806365;78;20200;-41
2021/01/01 13:01:13;;;;;;;;;;;;;;;2.13;100.00;100942.86;1807431;78;20170;-39
2021/01/01 13:03:41;;;;;;;;;;;;;;;2.14;100.00;100943.73;1806222;78;20344;-41
2021/01/01 13:06:11;;;;;;;;;;;;;;;2.12;100.00;100945.41;1807451;78;20270;-41
2021/01/01 13:08:40;;;;;;;;;;;;;;;2.12;100.00;100941.53;1764430;80;20190;-39
2021/01/01 13:11:09;;;;;;;;;;;;;;;2.10;100.00;100952.28;1807185;78;20150;-39
2021/01/01 13:13:38;;;;;;;;;;;;;;;2.09;100.00;100939.77;1763128;78;20208;-41
2021/01/01 13:16:10;;;;;;;;;;;;;;;2.08;100.00;100944.48;1715472;78;20259;-41
2021/01/01 13:18:43;;;;;;;;;;;;;;;2.07;100.00;100954.37;1786412;78;20630;-41
2021/01/01 13:21:35;;;;;;;;;;;;;;;2.07;100.00;100945.31;1751360;78;20174;-41
2021/01/01 13:24:05;;;;;;;;;;;;;;;2.08;100.00;100959.13;1778272;78;20833;-41
2021/01/01 13:26:33;;;;;;;;;;;;;;;2.07;100.00;100959.96;1807703;78;20171;-41
2021/01/01 13:29:02;;;;;;;;;;;;;;;2.04;100.00;100958.59;1808729;78;20295;-38
2021/01/01 13:31:37;;;;;;;;;;;;;;;2.02;100.00;100961.16;1808028;78;20300;-41
2021/01/01 13:34:07;;;;;;;;;;;;;;;2.00;100.00;100963.70;1811289;78;20197;-41
2021/01/01 13:36:37;;;;;;;;;;;;;;;1.98;100.00;100961.50;1813385;78;20256;-40
2021/01/01 13:39:05;;;;;;;;;;;;;;;1.95;100.00;100953.69;1806157;78;20290;-41
2021/01/01 13:41:39;;;;;;;;;;;;;;;1.92;100.00;100961.36;1802810;78;20215;-40
2021/01/01 13:44:07;;;;;;;;;;;;;;;1.89;100.00;100958.73;1805228;78;20200;-41
2021/01/01 13:46:35;;;;;;;;;;;;;;;1.85;100.00;100956.89;1807729;78;20198;-42
2021/01/01 13:49:05;;;;;;;;;;;;;;;1.83;100.00;100959.01;1806997;78;21192;-40
2021/01/01 13:51:35;;;;;;;;;;;;;;;1.80;100.00;100964.09;1807465;78;20244;-40
2021/01/01 13:54:04;;;;;;;;;;;;;;;1.77;100.00;100967.92;1806478;78;20252;-41
2021/01/01 13:56:33;;;;;;;;;;;;;;;1.76;100.00;100973.92;1809304;78;20174;-40
2021/01/01 13:59:02;;;;;;;;;;;;;;;1.73;100.00;100976.00;1807950;78;20494;-40
2021/01/01 14:01:30;;;;;;;;;;;;;;;1.73;100.00;100969.95;1806120;78;20188;-40
2021/01/01 14:03:58;;;;;;;;;;;;;;;1.71;100.00;100966.48;1807548;78;20276;-40